Time;durP1;ratioP1;P1;durP2;ratioP2;P2;SDS_P1;SDS_P2;PMS_P1;PMS_P2;Temp;Humidity;BMP_temperature;BMP_pressure;BME280_temperature;BME280_humidity;BME280_pressure;Samples;Min_cycle;Max_cycle;Signal;HPM_P1;HPM_P2
2023/10/30 00:04:21;;;;;;;0.70;0.38;;;;;;;11.20;100.00;97373.56;15281436;19;20018;-52
2023/10/30 00:09:45;;;;;;;0.88;0.40;;;;;;;11.20;100.00;97382.47;15287443;19;20026;-53
2023/10/30 00:15:13;;;;;;;0.63;0.20;;;;;;;11.22;100.00;97377.72;15284146;19;20024;-52
2023/10/30 00:20:37;;;;;;;0.90;0.30;;;;;;;11.25;100.00;97376.50;15285481;19;20016;-51
2023/10/30 00:26:02;;;;;;;1.17;0.40;;;;;;;11.23;100.00;97381.28;15280889;19;20093;-52
2023/10/30 00:31:32;;;;;;;1.17;0.47;;;;;;;11.14;100.00;97377.88;15277914;19;20476;-51
2023/10/30 00:36:57;;;;;;;0.80;0.40;;;;;;;11.06;100.00;97405.75;15282396;19;20018;-53
2023/10/30 00:42:26;;;;;;;2.47;0.40;;;;;;;10.99;100.00;97429.13;15278366;19;20014;-49
2023/10/30 00:47:54;;;;;;;1.02;0.40;;;;;;;10.90;100.00;97444.53;15281999;19;20010;-49
2023/10/30 00:53:19;;;;;;;0.85;0.40;;;;;;;10.85;100.00;97443.44;15281956;19;20017;-50
2023/10/30 00:58:44;;;;;;;0.90;0.45;;;;;;;10.80;100.00;97444.00;15282077;19;20697;-48
2023/10/30 01:04:11;;;;;;;2.05;0.40;;;;;;;10.74;100.00;97440.19;15274018;19;20019;-50
2023/10/30 01:09:36;;;;;;;1.02;0.50;;;;;;;10.68;100.00;97437.41;15281553;19;20019;-49
2023/10/30 01:15:00;;;;;;;2.92;0.50;;;;;;;10.58;100.00;97435.00;15280547;19;20498;-51
2023/10/30 01:20:27;;;;;;;0.60;0.30;;;;;;;10.50;100.00;97448.56;15280699;19;20082;-51
2023/10/30 01:25:55;;;;;;;1.03;0.37;;;;;;;10.50;100.00;97464.72;15278330;19;20021;-51
2023/10/30 01:31:21;;;;;;;1.67;0.43;;;;;;;10.48;100.00;97459.50;15279841;19;20292;-48
2023/10/30 01:36:50;;;;;;;1.98;0.50;;;;;;;10.46;100.00;97475.84;15275367;19;20010;-49
2023/10/30 01:42:14;;;;;;;1.27;0.40;;;;;;;10.42;100.00;97476.41;15277347;19;20082;-50
2023/10/30 01:47:39;;;;;;;1.52;0.47;;;;;;;10.36;100.00;97466.31;15278692;19;20527;-51
2023/10/30 01:53:06;;;;;;;2.80;0.88;;;;;;;10.29;100.00;97434.75;15276615;19;20351;-52
2023/10/30 01:58:32;;;;;;;2.90;0.43;;;;;;;10.31;100.00;97438.09;15276022;19;20014;-50
2023/10/30 02:03:57;;;;;;;2.33;0.50;;;;;;;10.30;100.00;97478.66;15271080;19;20037;-54
2023/10/30 02:09:25;;;;;;;2.53;0.50;;;;;;;10.32;100.00;97482.00;15274013;19;20082;-51
2023/10/30 02:14:50;;;;;;;1.75;0.52;;;;;;;10.32;100.00;97512.47;15276697;19;20018;-50
2023/10/30 02:20:16;;;;;;;2.60;0.60;;;;;;;10.36;100.00;97502.16;15277317;19;20082;-48
2023/10/30 02:25:50;;;;;;;1.65;0.60;;;;;;;10.48;100.00;97489.97;15270735;19;20025;-48
2023/10/30 02:31:15;;;;;;;0.75;0.45;;;;;;;10.54;100.00;97439.06;15276239;19;20015;-49
2023/10/30 02:36:39;;;;;;;1.95;0.57;;;;;;;10.56;100.00;97480.13;15274027;19;20014;-49
2023/10/30 02:42:08;;;;;;;1.92;0.60;;;;;;;10.56;100.00;97505.22;15270186;19;20035;-47
2023/10/30 02:47:40;;;;;;;4.22;0.60;;;;;;;10.58;100.00;97496.94;15269030;19;20070;-50
2023/10/30 02:53:07;;;;;;;2.30;0.50;;;;;;;10.60;100.00;97489.50;15269208;19;20021;-52
2023/10/30 02:58:35;;;;;;;2.83;0.70;;;;;;;10.60;100.00;97486.81;15272777;19;20336;-53
2023/10/30 03:04:00;;;;;;;2.97;0.70;;;;;;;10.58;100.00;97486.16;15270362;19;20416;-51
2023/10/30 03:09:25;;;;;;;1.80;0.57;;;;;;;10.53;100.00;97472.41;15290081;19;20027;-49
2023/10/30 03:14:53;;;;;;;2.92;0.70;;;;;;;10.46;100.00;97465.06;15281003;19;20370;-50
2023/10/30 03:20:19;;;;;;;2.55;0.60;;;;;;;10.46;100.00;97451.59;15285385;19;20033;-52
2023/10/30 03:25:51;;;;;;;3.00;0.65;;;;;;;10.43;100.00;97461.91;15276840;19;20015;-50
2023/10/30 03:31:18;;;;;;;1.75;0.70;;;;;;;10.45;100.00;97471.47;15283407;19;20018;-51
2023/10/30 03:36:43;;;;;;;2.78;0.60;;;;;;;10.52;100.00;97465.38;15286539;19;20020;-55
2023/10/30 03:42:08;;;;;;;2.13;0.70;;;;;;;10.53;100.00;97464.31;15282611;19;20636;-51
2023/10/30 03:47:36;;;;;;;2.63;0.60;;;;;;;10.53;100.00;97456.25;15275928;19;20021;-52
2023/10/30 03:53:01;;;;;;;1.70;0.60;;;;;;;10.54;100.00;97466.84;15279693;19;20018;-53
2023/10/30 03:58:25;;;;;;;3.28;0.70;;;;;;;10.54;100.00;97468.69;15284968;19;20029;-51
2023/10/30 04:03:52;;;;;;;2.38;0.70;;;;;;;10.56;100.00;97455.88;15279335;19;20018;-52
2023/10/30 04:09:17;;;;;;;3.15;0.80;;;;;;;10.52;100.00;97481.53;15285899;19;20035;-50
2023/10/30 04:14:42;;;;;;;2.15;0.60;;;;;;;10.54;100.00;97496.47;15283140;19;20039;-51
2023/10/30 04:20:09;;;;;;;2.90;0.52;;;;;;;10.58;100.00;97491.53;15025030;19;5001201;-50
2023/10/30 04:25:40;;;;;;;3.67;0.70;;;;;;;10.55;100.00;97481.13;15278253;19;20090;-50
2023/10/30 04:31:08;;;;;;;2.90;0.67;;;;;;;10.57;100.00;97462.94;15282672;19;20035;-50
2023/10/30 04:36:36;;;;;;;2.88;0.88;;;;;;;10.60;100.00;97467.97;15280639;19;20271;-50
2023/10/30 04:42:01;;;;;;;3.08;1.20;;;;;;;10.58;100.00;97448.44;15279578;19;20023;-52
2023/10/30 04:47:25;;;;;;;1.98;0.50;;;;;;;10.55;100.00;97459.59;15275217;19;20472;-48
2023/10/30 04:52:52;;;;;;;3.05;0.60;;;;;;;10.52;100.00;97454.59;15277701;19;21142;-52
2023/10/30 04:58:17;;;;;;;2.22;0.70;;;;;;;10.53;100.00;97450.84;15279103;19;20007;-52
2023/10/30 05:03:42;;;;;;;3.20;0.65;;;;;;;10.53;100.00;97442.78;15279221;19;20817;-53
2023/10/30 05:09:09;;;;;;;4.03;0.73;;;;;;;10.57;100.00;97436.00;15282174;19;20387;-50
2023/10/30 05:14:34;;;;;;;3.22;0.63;;;;;;;10.58;100.00;97460.09;15280698;19;20053;-53
2023/10/30 05:19:58;;;;;;;3.05;0.80;;;;;;;10.60;100.00;97449.09;15276549;19;20015;-49
2023/10/30 05:25:32;;;;;;;2.00;0.65;;;;;;;10.59;100.00;97456.34;15278207;19;20348;-53
2023/10/30 05:31:00;;;;;;;2.97;0.70;;;;;;;10.61;100.00;97450.78;15278520;19;20020;-52
2023/10/30 05:36:24;;;;;;;1.30;0.65;;;;;;;10.62;100.00;97420.13;15277517;19;20375;-52
2023/10/30 05:41:51;;;;;;;2.72;0.80;;;;;;;10.64;100.00;97463.88;15274777;19;20022;-53
2023/10/30 05:47:17;;;;;;;3.67;1.00;;;;;;;10.64;100.00;97480.88;15275831;19;20014;-50
2023/10/30 05:52:42;;;;;;;2.08;0.65;;;;;;;10.64;100.00;97470.09;15272945;19;20018;-51
2023/10/30 05:58:09;;;;;;;1.85;0.57;;;;;;;10.64;100.00;97493.53;15276289;19;20015;-52
2023/10/30 06:03:34;;;;;;;4.35;0.77;;;;;;;10.60;100.00;97495.72;15274959;19;20474;-54
2023/10/30 06:08:58;;;;;;;1.83;0.70;;;;;;;10.60;100.00;97490.31;15271882;19;20026;-50
2023/10/30 06:14:26;;;;;;;2.78;0.73;;;;;;;10.61;100.00;97480.41;15271722;19;20018;-50
2023/10/30 06:19:51;;;;;;;2.17;0.70;;;;;;;10.64;100.00;97458.50;15277378;19;20015;-49
2023/10/30 06:25:22;;;;;;;3.53;0.60;;;;;;;10.64;100.00;97455.81;15266627;19;20078;-52
2023/10/30 06:30:50;;;;;;;2.08;0.80;;;;;;;10.63;100.00;97463.03;15276598;19;20023;-51
2023/10/30 06:36:16;;;;;;;1.83;0.68;;;;;;;10.61;100.00;97462.38;15270954;19;20019;-51
2023/10/30 06:41:41;;;;;;;2.33;0.70;;;;;;;10.62;100.00;97469.44;15284271;19;20377;-54
2023/10/30 06:47:08;;;;;;;2.63;0.70;;;;;;;10.66;100.00;97464.50;15287416;19;20029;-50
2023/10/30 06:52:33;;;;;;;3.97;0.60;;;;;;;10.71;100.00;97497.13;15287950;19;20028;-50
2023/10/30 06:57:57;;;;;;;2.10;0.55;;;;;;;10.75;100.00;97509.22;15283551;19;20014;-50
2023/10/30 07:03:24;;;;;;;2.60;1.05;;;;;;;10.81;100.00;97522.97;15283505;19;20415;-51
2023/10/30 07:08:49;;;;;;;3.15;0.80;;;;;;;10.86;100.00;97520.56;15284023;19;20014;-52
2023/10/30 07:14:14;;;;;;;2.65;0.70;;;;;;;10.91;100.00;97528.91;15283948;19;20031;-54
2023/10/30 07:19:42;;;;;;;2.58;0.63;;;;;;;10.98;100.00;97548.72;15288845;19;20539;-50
2023/10/30 07:25:09;;;;;;;2.25;0.70;;;;;;;11.05;100.00;97557.72;15282497;19;20628;-53
2023/10/30 07:30:34;;;;;;;1.80;0.60;;;;;;;11.12;100.00;97562.34;15283450;19;20017;-50
2023/10/30 07:36:02;;;;;;;1.95;0.50;;;;;;;11.16;100.00;97569.06;15285819;19;20010;-50
2023/10/30 07:41:27;;;;;;;1.33;0.60;;;;;;;11.20;100.00;97548.81;15282302;19;20407;-53
2023/10/30 07:46:53;;;;;;;1.50;0.60;;;;;;;11.27;100.00;97554.28;15279352;19;20520;-50
2023/10/30 07:52:20;;;;;;;1.00;0.40;;;;;;;11.33;100.00;97559.75;15279112;19;20547;-52
2023/10/30 07:57:45;;;;;;;1.40;0.50;;;;;;;11.41;100.00;97573.13;15280390;19;20039;-51
2023/10/30 08:03:10;;;;;;;2.10;0.43;;;;;;;11.48;100.00;97558.88;15267796;19;20018;-53
2023/10/30 08:08:37;;;;;;;1.55;0.60;;;;;;;11.57;100.00;97555.09;15272764;19;20450;-53
2023/10/30 08:14:02;;;;;;;1.95;0.60;;;;;;;11.63;100.00;97570.50;15279583;19;20082;-54
2023/10/30 08:19:27;;;;;;;1.63;0.60;;;;;;;11.66;100.00;97550.38;15277663;19;20043;-54
2023/10/30 08:25:02;;;;;;;2.50;0.57;;;;;;;11.67;100.00;97544.81;15275250;19;20018;-55
2023/10/30 08:30:27;;;;;;;1.15;0.43;;;;;;;11.71;100.00;97507.50;15280733;19;20029;-56
2023/10/30 08:35:51;;;;;;;1.70;0.50;;;;;;;11.78;100.00;97503.00;15266327;19;20010;-52
2023/10/30 08:41:20;;;;;;;1.08;0.43;;;;;;;11.84;100.00;97504.09;15282535;19;20030;-53
2023/10/30 08:46:44;;;;;;;0.85;0.50;;;;;;;11.86;100.00;97523.63;15281101;19;20028;-52
2023/10/30 08:52:09;;;;;;;2.00;0.50;;;;;;;11.91;100.00;97501.47;15282721;19;20362;-56
2023/10/30 08:57:36;;;;;;;1.60;0.60;;;;;;;11.99;100.00;97479.78;15283147;19;20010;-54
2023/10/30 09:03:01;;;;;;;1.20;0.40;;;;;;;12.17;100.00;97484.72;15280402;19;20461;-53
2023/10/30 09:08:25;;;;;;;1.95;0.45;;;;;;;12.29;100.00;97472.34;15275582;19;20050;-54
2023/10/30 09:13:53;;;;;;;1.13;0.40;;;;;;;12.44;100.00;97442.56;15277858;19;20006;-56
2023/10/30 09:19:17;;;;;;;2.35;0.63;;;;;;;12.60;100.00;97422.47;15281539;19;20022;-57
2023/10/30 09:24:48;;;;;;;1.63;0.50;;;;;;;12.84;100.00;97398.69;15278303;19;20472;-53
2023/10/30 09:30:16;;;;;;;1.23;0.43;;;;;;;13.07;100.00;97402.94;15280662;19;20033;-56
2023/10/30 09:35:42;;;;;;;1.98;1.00;;;;;;;13.26;100.00;97368.91;15280633;19;20014;-55
2023/10/30 09:41:08;;;;;;;1.15;0.55;;;;;;;13.45;100.00;97361.03;15276298;19;20021;-55
2023/10/30 09:46:37;;;;;;;1.75;0.40;;;;;;;13.62;100.00;97350.66;15276232;19;20014;-53
2023/10/30 09:52:05;;;;;;;1.67;0.57;;;;;;;13.79;100.00;97335.69;15279419;19;20018;-53
2023/10/30 09:57:30;;;;;;;0.90;0.40;;;;;;;13.89;100.00;97327.13;15280471;19;20378;-53
2023/10/30 10:02:57;;;;;;;1.40;0.47;;;;;;;13.95;100.00;97306.50;15275621;19;20014;-54
2023/10/30 10:08:23;;;;;;;2.42;0.40;;;;;;;14.03;100.00;97306.28;15277189;19;20023;-56
2023/10/30 10:13:48;;;;;;;2.08;0.40;;;;;;;14.16;100.00;97290.00;15273853;19;20010;-52
2023/10/30 10:19:34;;;;;;;0.47;0.22;;;;;;;14.24;100.00;97294.34;15294822;19;20014;-54
2023/10/30 10:25:07;;;;;;;0.35;0.35;;;;;;;14.32;100.00;97296.00;15288765;19;20053;-56
2023/10/30 10:30:35;;;;;;;2.85;0.60;;;;;;;14.43;100.00;97291.81;15294258;19;20082;-52
2023/10/30 10:36:04;;;;;;;0.60;0.40;;;;;;;14.55;100.00;97279.25;15289917;19;20090;-56
2023/10/30 10:41:30;;;;;;;1.08;0.52;;;;;;;14.63;100.00;97264.63;15288645;19;20373;-55
2023/10/30 10:46:59;;;;;;;1.10;0.40;;;;;;;14.71;100.00;97264.41;15285473;19;20021;-51
2023/10/30 10:52:30;;;;;;;0.95;0.40;;;;;;;14.82;100.00;97262.03;15290107;19;20014;-54
2023/10/30 10:57:58;;;;;;;0.88;0.30;;;;;;;14.92;100.00;97255.13;15290704;19;20014;-50
2023/10/30 11:03:24;;;;;;;0.77;0.40;;;;;;;15.06;100.00;97226.00;15288015;19;20007;-52
2023/10/30 11:08:57;;;;;;;0.50;0.30;;;;;;;15.17;100.00;97220.94;15287926;19;20022;-54
2023/10/30 11:14:34;;;;;;;0.47;0.30;;;;;;;15.22;100.00;97216.50;15285786;19;20014;-54
2023/10/30 11:19:58;;;;;;;0.77;0.40;;;;;;;15.24;100.00;97222.53;15291237;19;20011;-52
2023/10/30 11:25:56;;;;;;;1.70;0.40;;;;;;;15.25;100.00;97217.94;15283667;19;20022;-52
2023/10/30 11:31:21;;;;;;;1.80;0.60;;;;;;;15.23;100.00;97220.88;14775620;19;10001091;-51
2023/10/30 11:36:46;;;;;;;1.08;0.40;;;;;;;15.27;100.00;97213.13;15289343;19;20286;-58
2023/10/30 11:42:39;;;;;;;1.25;0.50;;;;;;;15.34;100.00;97200.34;15287782;19;20679;-53
2023/10/30 11:48:09;;;;;;;0.57;0.30;;;;;;;15.44;100.00;97188.16;15281866;19;20014;-54
2023/10/30 11:53:34;;;;;;;0.50;0.20;;;;;;;15.53;100.00;97198.47;15283735;19;20006;-56
2023/10/30 11:59:02;;;;;;;1.55;0.40;;;;;;;15.56;100.00;97187.19;15286307;19;20010;-54
2023/10/30 12:04:28;;;;;;;1.83;0.32;;;;;;;15.53;100.00;97194.94;15283266;19;20018;-55
2023/10/30 12:09:55;;;;;;;0.55;0.30;;;;;;;15.50;100.00;97184.53;15285796;19;20010;-55
2023/10/30 12:15:23;;;;;;;0.55;0.20;;;;;;;15.43;100.00;97170.19;15284779;19;20032;-52
2023/10/30 12:20:47;;;;;;;1.13;0.40;;;;;;;15.40;100.00;97150.59;15285816;19;20018;-55
2023/10/30 12:26:19;;;;;;;0.93;0.30;;;;;;;15.45;100.00;97138.25;15287043;19;20015;-54
2023/10/30 12:31:47;;;;;;;1.10;0.35;;;;;;;15.51;100.00;97131.91;15290351;19;20014;-54
2023/10/30 12:37:26;;;;;;;1.80;0.60;;;;;;;15.53;100.00;97127.91;15287274;19;20035;-54
2023/10/30 12:42:52;;;;;;;0.77;0.30;;;;;;;15.58;100.00;97121.81;15290381;19;20074;-54
2023/10/30 12:48:19;;;;;;;1.25;0.40;;;;;;;15.59;100.00;97123.47;15289466;19;20019;-56
2023/10/30 12:53:44;;;;;;;0.73;0.40;;;;;;;15.56;100.00;97094.06;15277106;19;20077;-55
2023/10/30 12:59:08;;;;;;;0.47;0.30;;;;;;;15.56;100.00;97097.59;15283982;19;20014;-53
2023/10/30 13:04:43;;;;;;;0.88;0.30;;;;;;;15.65;100.00;97060.13;15285036;19;20014;-56
2023/10/30 13:10:10;;;;;;;1.10;0.30;;;;;;;15.83;100.00;97051.13;15280809;19;20014;-54
2023/10/30 13:15:34;;;;;;;0.25;0.20;;;;;;;16.01;100.00;97068.47;15282537;19;20013;-55
2023/10/30 13:21:02;;;;;;;1.52;0.45;;;;;;;16.09;100.00;97035.56;15279529;19;20026;-56
2023/10/30 13:26:35;;;;;;;0.32;0.22;;;;;;;16.17;100.00;97031.69;15273579;19;20019;-53
2023/10/30 13:32:00;;;;;;;0.75;0.30;;;;;;;16.17;100.00;97024.38;15282022;19;20081;-55
2023/10/30 13:37:27;;;;;;;0.50;0.40;;;;;;;16.12;100.00;97024.22;15280841;19;20085;-57
2023/10/30 13:42:52;;;;;;;0.63;0.40;;;;;;;16.05;100.00;97018.06;15280048;19;20086;-54
2023/10/30 13:48:16;;;;;;;1.75;0.57;;;;;;;16.00;100.00;97016.06;15278604;19;20354;-56
2023/10/30 13:53:43;;;;;;;1.17;0.50;;;;;;;15.99;100.00;97003.53;15272952;19;20020;-56
2023/10/30 13:59:09;;;;;;;1.45;0.43;;;;;;;15.99;100.00;97006.25;15271432;19;20025;-56
2023/10/30 14:04:36;;;;;;;0.80;0.50;;;;;;;15.94;100.00;96992.50;15278757;19;20018;-54
2023/10/30 14:10:05;;;;;;;0.68;0.50;;;;;;;15.91;100.00;96994.88;15300073;19;20014;-55
2023/10/30 14:15:30;;;;;;;0.47;0.40;;;;;;;15.88;100.00;96989.91;15280433;19;20364;-55
2023/10/30 14:20:54;;;;;;;0.65;0.40;;;;;;;15.80;100.00;96991.03;15277939;19;20100;-50
2023/10/30 14:26:29;;;;;;;0.93;0.45;;;;;;;15.74;100.00;96976.50;15272512;19;20360;-52
2023/10/30 14:31:54;;;;;;;1.48;0.52;;;;;;;15.65;100.00;96969.72;15273648;19;20011;-53
2023/10/30 14:37:19;;;;;;;0.82;0.50;;;;;;;15.55;100.00;96973.00;15278088;19;20022;-54
2023/10/30 14:42:47;;;;;;;0.88;0.47;;;;;;;15.44;100.00;96962.91;15271042;19;20019;-53
2023/10/30 14:48:12;;;;;;;1.33;0.60;;;;;;;15.38;100.00;96967.38;15274783;19;20014;-56
2023/10/30 14:53:37;;;;;;;2.33;0.80;;;;;;;15.30;100.00;96959.50;15273249;19;20011;-57
2023/10/30 14:59:05;;;;;;;1.00;0.90;;;;;;;15.22;100.00;96958.78;15276978;19;20074;-56
2023/10/30 15:04:30;;;;;;;1.40;0.60;;;;;;;15.13;100.00;96960.16;15279599;19;20041;-56
2023/10/30 15:09:54;;;;;;;0.68;0.50;;;;;;;15.02;100.00;96953.56;15278163;19;20347;-53
2023/10/30 15:15:22;;;;;;;1.75;0.50;;;;;;;14.95;100.00;96931.16;15275236;19;20093;-55
2023/10/30 15:20:47;;;;;;;0.60;0.50;;;;;;;14.96;100.00;96943.66;15276102;19;20029;-54
2023/10/30 15:26:18;;;;;;;1.48;0.73;;;;;;;14.88;100.00;96936.63;15275321;19;20753;-57
2023/10/30 15:31:47;;;;;;;2.05;0.70;;;;;;;14.77;100.00;96934.69;15271246;19;20082;-55
2023/10/30 15:37:12;;;;;;;2.17;0.57;;;;;;;14.65;100.00;96921.00;15275117;19;20010;-56
2023/10/30 15:42:38;;;;;;;1.40;0.70;;;;;;;14.59;100.00;96919.19;15275943;19;20367;-53
2023/10/30 15:48:06;;;;;;;1.30;0.63;;;;;;;14.60;100.00;96918.16;15274988;19;20035;-56
2023/10/30 15:53:31;;;;;;;1.15;0.50;;;;;;;14.60;100.00;96910.81;15273591;19;20043;-56
2023/10/30 15:59:15;;;;;;;1.15;0.60;;;;;;;14.57;100.00;96896.91;15280084;19;20018;-51
2023/10/30 16:04:43;;;;;;;0.98;0.55;;;;;;;14.52;100.00;96862.34;15275716;19;20058;-56
2023/10/30 16:10:11;;;;;;;1.35;0.60;;;;;;;14.43;100.00;96856.41;15274309;19;20583;-56
2023/10/30 16:15:40;;;;;;;1.50;0.50;;;;;;;14.36;100.00;96858.38;15274213;19;20579;-54
2023/10/30 16:21:07;;;;;;;1.50;0.60;;;;;;;14.30;100.00;96857.38;15274698;19;20024;-50
2023/10/30 16:26:40;;;;;;;0.90;0.50;;;;;;;14.25;100.00;96869.94;15270177;19;20029;-56
2023/10/30 16:32:06;;;;;;;1.60;1.00;;;;;;;14.12;100.00;96869.00;15271729;19;20421;-53
2023/10/30 16:37:36;;;;;;;2.00;1.40;;;;;;;13.98;100.00;96862.88;15269410;19;20023;-51
2023/10/30 16:43:01;;;;;;;1.42;0.90;;;;;;;13.94;100.00;96850.00;15274526;19;20367;-53
2023/10/30 16:48:25;;;;;;;1.02;0.90;;;;;;;13.91;100.00;96853.16;15273581;19;20434;-53
2023/10/30 16:53:54;;;;;;;1.80;1.00;;;;;;;13.85;100.00;96833.22;15270542;19;20527;-51
2023/10/30 16:59:18;;;;;;;0.90;0.70;;;;;;;13.81;100.00;96835.53;15272893;19;20359;-59
2023/10/30 17:04:43;;;;;;;1.40;0.80;;;;;;;13.80;100.00;96839.31;15274302;19;20010;-52
2023/10/30 17:10:12;;;;;;;1.40;0.60;;;;;;;13.79;100.00;96821.41;15266308;19;20024;-52
2023/10/30 17:15:37;;;;;;;0.88;0.70;;;;;;;13.77;100.00;96814.53;15272360;19;20377;-54
2023/10/30 17:21:05;;;;;;;1.30;0.55;;;;;;;13.74;100.00;96796.88;15272507;19;20025;-51
2023/10/30 17:26:39;;;;;;;1.35;0.90;;;;;;;13.73;100.00;96792.50;15266522;19;20479;-51
2023/10/30 17:32:04;;;;;;;1.30;0.95;;;;;;;13.74;100.00;96777.94;15262055;19;20018;-52
2023/10/30 17:37:30;;;;;;;1.35;1.00;;;;;;;13.73;100.00;96767.34;15269732;19;20030;-51
2023/10/30 17:42:58;;;;;;;1.15;1.00;;;;;;;13.71;100.00;96760.25;15264462;19;20010;-51
2023/10/30 17:48:23;;;;;;;1.20;0.82;;;;;;;13.70;100.00;96758.59;15270518;19;20035;-53
2023/10/30 17:53:48;;;;;;;1.60;0.90;;;;;;;13.72;100.00;96755.66;15268206;19;20021;-52
2023/10/30 17:59:15;;;;;;;2.58;0.90;;;;;;;13.71;100.00;96749.44;15267668;19;20761;-54
2023/10/30 18:04:40;;;;;;;1.65;0.88;;;;;;;13.74;100.00;96736.50;15267465;19;20082;-54
2023/10/30 18:10:04;;;;;;;2.35;0.90;;;;;;;13.74;100.00;96737.34;15242161;19;20046;-54
2023/10/30 18:15:32;;;;;;;3.08;1.00;;;;;;;13.75;100.00;96727.34;15262796;19;20085;-51
2023/10/30 18:20:56;;;;;;;2.78;1.73;;;;;;;13.76;100.00;96723.59;15268330;19;20015;-51
2023/10/30 18:26:29;;;;;;;7.32;6.63;;;;;;;13.75;100.00;96714.63;15262274;19;20018;-54
2023/10/30 18:31:57;;;;;;;3.75;3.40;;;;;;;13.74;100.00;96699.44;15265138;19;20033;-55
2023/10/30 18:37:22;;;;;;;1.15;0.80;;;;;;;13.78;100.00;96700.66;15279820;19;20382;-55
2023/10/30 18:42:47;;;;;;;3.90;2.53;;;;;;;13.81;100.00;96686.69;15279786;19;20030;-54
2023/10/30 18:48:14;;;;;;;7.63;6.13;;;;;;;13.86;100.00;96669.78;15277404;19;20037;-52
2023/10/30 18:53:39;;;;;;;10.23;8.60;;;;;;;13.84;100.00;96656.44;15278230;19;20532;-52
2023/10/30 18:59:03;;;;;;;3.08;1.40;;;;;;;13.87;100.00;96657.88;15280530;19;20035;-53
2023/10/30 19:04:31;;;;;;;0.82;0.80;;;;;;;13.89;100.00;96661.19;15276557;19;20011;-55
2023/10/30 19:09:55;;;;;;;0.82;0.63;;;;;;;13.91;100.00;96658.25;15278912;19;20018;-54
2023/10/30 19:15:20;;;;;;;1.77;0.88;;;;;;;13.90;100.00;96645.78;15280627;19;20097;-52
2023/10/30 19:20:48;;;;;;;1.15;0.90;;;;;;;13.90;100.00;96649.28;15275077;19;20432;-56
2023/10/30 19:26:19;;;;;;;1.45;0.88;;;;;;;13.93;100.00;96642.63;15275422;19;20026;-54
2023/10/30 19:31:44;;;;;;;1.15;0.80;;;;;;;13.93;100.00;96623.69;15276834;19;20010;-54
2023/10/30 19:37:11;;;;;;;1.63;0.57;;;;;;;13.93;100.00;96631.81;15276753;19;20015;-55
2023/10/30 19:42:36;;;;;;;1.00;0.70;;;;;;;13.90;100.00;96632.25;15275260;19;20028;-53
2023/10/30 19:48:00;;;;;;;1.25;0.70;;;;;;;13.89;100.00;96627.88;15274713;19;20015;-53
2023/10/30 19:53:28;;;;;;;2.95;1.00;;;;;;;13.87;100.00;96637.06;15268871;19;20015;-54
2023/10/30 19:58:52;;;;;;;2.03;0.80;;;;;;;13.85;100.00;96625.63;15277772;19;20496;-52
2023/10/30 20:04:17;;;;;;;1.30;0.90;;;;;;;13.82;100.00;96626.06;15270108;19;20734;-53
2023/10/30 20:09:46;;;;;;;3.35;0.90;;;;;;;13.75;100.00;96609.09;15248954;19;20018;-55
2023/10/30 20:15:26;;;;;;;2.53;0.73;;;;;;;13.69;100.00;96610.00;15275783;19;20078;-54
2023/10/30 20:20:51;;;;;;;1.80;0.85;;;;;;;13.62;100.00;96601.97;15275755;19;20758;-51
2023/10/30 20:26:20;;;;;;;2.88;0.75;;;;;;;13.53;100.00;96617.66;15265653;19;20534;-51
2023/10/30 20:31:44;;;;;;;1.90;0.80;;;;;;;13.53;100.00;96606.00;15273489;19;20024;-54
2023/10/30 20:37:11;;;;;;;1.40;0.80;;;;;;;13.27;100.00;96551.13;15274300;19;20468;-54
2023/10/30 20:42:39;;;;;;;1.42;0.90;;;;;;;12.97;100.00;96564.53;15273365;19;20018;-51
2023/10/30 20:48:05;;;;;;;1.90;0.90;;;;;;;12.92;100.00;96557.09;15269539;19;20035;-55
2023/10/30 20:53:30;;;;;;;2.70;1.00;;;;;;;12.83;100.00;96532.22;15272469;19;20019;-55
2023/10/30 20:58:57;;;;;;;1.92;0.80;;;;;;;12.73;100.00;96513.81;15262187;19;20025;-53
2023/10/30 21:04:21;;;;;;;0.88;0.70;;;;;;;12.78;100.00;96513.16;15268448;19;20024;-47
2023/10/30 21:09:46;;;;;;;1.48;1.05;;;;;;;12.82;100.00;96556.78;15270016;19;20347;-47
2023/10/30 21:15:15;;;;;;;1.67;0.90;;;;;;;12.78;100.00;96561.78;15272173;19;20014;-50
2023/10/30 21:20:39;;;;;;;1.23;0.70;;;;;;;12.74;100.00;96561.41;15272146;19;20370;-47
2023/10/30 21:26:12;;;;;;;2.63;1.00;;;;;;;12.75;100.00;96562.25;15267846;19;20078;-46
2023/10/30 21:31:39;;;;;;;1.52;0.90;;;;;;;12.76;100.00;96563.88;15267765;19;20020;-47
2023/10/30 21:37:04;;;;;;;1.27;0.85;;;;;;;12.81;100.00;96550.53;15271572;19;20055;-47
2023/10/30 21:42:29;;;;;;;2.65;1.15;;;;;;;12.87;100.00;96511.84;15269503;19;20018;-47
2023/10/30 21:47:58;;;;;;;3.55;0.90;;;;;;;12.91;100.00;96518.44;15271232;19;20018;-52
2023/10/30 21:53:22;;;;;;;3.28;1.08;;;;;;;12.87;100.00;96517.25;15269451;19;20042;-50
2023/10/30 21:58:47;;;;;;;3.00;1.48;;;;;;;12.88;100.00;96518.88;15267233;19;20014;-47
2023/10/30 22:04:14;;;;;;;1.65;0.80;;;;;;;12.87;100.00;96528.06;15262633;19;20030;-47
2023/10/30 22:09:39;;;;;;;1.90;1.70;;;;;;;12.74;100.00;96526.28;15279380;19;20031;-52
2023/10/30 22:15:04;;;;;;;1.65;1.50;;;;;;;12.66;100.00;96534.69;15299350;19;20050;-49
2023/10/30 22:20:32;;;;;;;2.15;1.40;;;;;;;12.61;100.00;96535.34;15299390;19;20018;-46
2023/10/30 22:26:03;;;;;;;2.42;1.20;;;;;;;12.58;100.00;96535.78;15293506;19;20110;-53
2023/10/30 22:31:29;;;;;;;2.40;1.30;;;;;;;12.61;100.00;96542.59;15295619;19;20086;-50
2023/10/30 22:36:57;;;;;;;1.50;1.20;;;;;;;12.58;100.00;96527.66;15298271;19;20091;-51
2023/10/30 22:42:21;;;;;;;3.25;1.42;;;;;;;12.56;100.00;96554.06;15295352;19;20010;-50
2023/10/30 22:47:46;;;;;;;2.13;1.10;;;;;;;12.56;100.00;96564.88;15296503;19;20018;-49
2023/10/30 22:53:14;;;;;;;2.08;1.20;;;;;;;12.54;100.00;96556.16;15294813;19;20496;-50
2023/10/30 22:58:39;;;;;;;1.77;1.20;;;;;;;12.49;100.00;96553.31;15298426;19;20018;-51
2023/10/30 23:04:03;;;;;;;3.38;1.20;;;;;;;12.44;100.00;96556.66;15289900;19;20018;-51
2023/10/30 23:09:31;;;;;;;2.55;1.33;;;;;;;12.46;100.00;96565.38;15296826;19;20073;-49
2023/10/30 23:14:55;;;;;;;2.55;1.40;;;;;;;12.45;100.00;96552.09;15295602;19;20984;-48
2023/10/30 23:20:21;;;;;;;2.13;1.30;;;;;;;12.38;100.00;96552.13;15289371;19;20360;-50
2023/10/30 23:25:55;;;;;;;1.85;1.40;;;;;;;12.31;100.00;96568.38;15278767;19;20013;-48
2023/10/30 23:31:20;;;;;;;2.85;1.50;;;;;;;12.30;100.00;96582.91;15302252;19;20018;-52
2023/10/30 23:36:46;;;;;;;2.35;1.40;;;;;;;12.31;100.00;96589.97;15274153;19;20357;-49
2023/10/30 23:42:20;;;;;;;2.65;1.67;;;;;;;12.29;100.00;96589.34;15278413;19;20038;-51
2023/10/30 23:47:44;;;;;;;1.55;1.38;;;;;;;12.24;100.00;96599.16;15279477;19;20018;-51
2023/10/30 23:53:09;;;;;;;2.17;1.55;;;;;;;12.22;100.00;96614.75;15276296;19;20025;-48
2023/10/30 23:58:36;;;;;;;2.17;1.55;;;;;;;12.23;100.00;96636.13;15276194;19;20019;-47
